Time;durP1;ratioP1;P1;durP2;ratioP2;P2;SDS_P1;SDS_P2;PMS_P1;PMS_P2;Temp;Humidity;BMP_temperature;BMP_pressure;BME280_temperature;BME280_humidity;BME280_pressure;Samples;Min_cycle;Max_cycle;Signal;HPM_P1;HPM_P2
2023/07/01 00:01:41;;;;;;;;;;;;;;;18.59;86.45;100489.81;4172242;28;20415;-64
2023/07/01 00:03:43;;;;;;;;;;;;;;;18.58;86.46;100485.44;4172241;28;20016;-62
2023/07/01 00:05:46;;;;;;;;;;;;;;;18.55;86.86;100482.06;4171632;28;20035;-63
2023/07/01 00:07:48;;;;;;;;;;;;;;;18.54;87.00;100485.03;4171236;28;20016;-63
2023/07/01 00:09:50;;;;;;;;;;;;;;;18.52;86.72;100482.53;4171633;28;20028;-63
2023/07/01 00:11:53;;;;;;;;;;;;;;;18.49;87.19;100485.75;4172536;28;20016;-63
2023/07/01 00:13:55;;;;;;;;;;;;;;;18.45;87.07;100481.84;4171318;28;20032;-62
2023/07/01 00:15:57;;;;;;;;;;;;;;;18.41;87.37;100477.91;4172013;28;20004;-62
2023/07/01 00:17:59;;;;;;;;;;;;;;;18.40;87.65;100478.13;4154252;28;20091;-63
2023/07/01 00:20:01;;;;;;;;;;;;;;;18.38;87.67;100472.91;4169642;28;19971;-63
2023/07/01 00:22:06;;;;;;;;;;;;;;;18.36;87.76;100478.59;4171434;28;20023;-63
2023/07/01 00:24:08;;;;;;;;;;;;;;;18.34;87.88;100469.00;4171758;28;20023;-62
2023/07/01 00:26:11;;;;;;;;;;;;;;;18.31;87.92;100470.28;4168526;28;20008;-63
2023/07/01 00:28:13;;;;;;;;;;;;;;;18.30;88.39;100479.53;4169615;28;20353;-63
2023/07/01 00:30:15;;;;;;;;;;;;;;;18.30;88.53;100478.72;4153087;28;20012;-63
2023/07/01 00:32:18;;;;;;;;;;;;;;;18.30;88.69;100471.34;4155555;28;20073;-62
2023/07/01 00:34:20;;;;;;;;;;;;;;;18.32;88.52;100471.97;4154024;28;20019;-62
2023/07/01 00:36:22;;;;;;;;;;;;;;;18.32;88.49;100471.09;4169481;28;20409;-63
2023/07/01 00:38:25;;;;;;;;;;;;;;;18.30;88.71;100478.72;4155902;28;20372;-62
2023/07/01 00:40:27;;;;;;;;;;;;;;;18.30;88.99;100470.53;4155025;28;19925;-63
2023/07/01 00:42:30;;;;;;;;;;;;;;;18.29;89.01;100480.63;4153844;28;20032;-60
2023/07/01 00:44:32;;;;;;;;;;;;;;;18.31;89.14;100472.19;4155326;28;19929;-62
2023/07/01 00:46:34;;;;;;;;;;;;;;;18.32;89.11;100469.22;4155102;28;20047;-62
2023/07/01 00:48:36;;;;;;;;;;;;;;;18.31;88.90;100466.72;4155314;28;20017;-63
2023/07/01 00:50:38;;;;;;;;;;;;;;;18.33;89.09;100459.94;4154444;28;20028;-61
2023/07/01 00:52:40;;;;;;;;;;;;;;;18.34;89.33;100460.78;4155423;28;20016;-62
2023/07/01 00:54:43;;;;;;;;;;;;;;;18.33;89.31;100454.47;4154773;28;20028;-63
2023/07/01 00:56:45;;;;;;;;;;;;;;;18.35;89.25;100454.22;4170047;28;20020;-63
2023/07/01 00:58:48;;;;;;;;;;;;;;;18.36;89.27;100448.53;4154877;28;20024;-62
2023/07/01 01:00:50;;;;;;;;;;;;;;;18.39;89.14;100449.16;4165723;28;20427;-63
2023/07/01 01:02:54;;;;;;;;;;;;;;;18.38;88.72;100453.75;4148727;28;20023;-64
2023/07/01 01:05:02;;;;;;;;;;;;;;;18.36;88.84;100450.44;4149665;28;20029;-63
2023/07/01 01:07:04;;;;;;;;;;;;;;;18.32;88.94;100452.81;4168998;28;20020;-60
2023/07/01 01:09:10;;;;;;;;;;;;;;;18.29;89.03;100450.56;4154671;28;20025;-64
2023/07/01 01:11:13;;;;;;;;;;;;;;;18.27;89.33;100449.94;4154967;28;20026;-64
2023/07/01 01:13:15;;;;;;;;;;;;;;;18.26;89.56;100439.25;4151285;28;20020;-63
2023/07/01 01:15:17;;;;;;;;;;;;;;;18.25;89.59;100449.34;4154271;28;20012;-63
2023/07/01 01:17:20;;;;;;;;;;;;;;;18.23;89.70;100443.31;4154117;28;20012;-63
2023/07/01 01:19:24;;;;;;;;;;;;;;;18.22;89.72;100438.88;4150056;28;20048;-63
2023/07/01 01:21:26;;;;;;;;;;;;;;;18.22;90.02;100447.09;4154838;28;20585;-63
2023/07/01 01:23:31;;;;;;;;;;;;;;;18.23;89.98;100437.84;4155116;28;20016;-64
2023/07/01 01:25:34;;;;;;;;;;;;;;;18.24;89.85;100438.66;4154068;28;20029;-63
2023/07/01 01:27:38;;;;;;;;;;;;;;;18.23;89.84;100437.84;4154709;28;20008;-64
2023/07/01 01:29:40;;;;;;;;;;;;;;;18.24;90.19;100433.19;4168476;28;20012;-63
2023/07/01 01:31:42;;;;;;;;;;;;;;;18.25;90.15;100430.22;4152270;28;20025;-63
2023/07/01 01:33:44;;;;;;;;;;;;;;;18.25;90.06;100423.94;4149087;28;20017;-63
2023/07/01 01:35:46;;;;;;;;;;;;;;;18.22;89.79;100422.50;4153142;28;20076;-63
2023/07/01 01:37:48;;;;;;;;;;;;;;;18.20;89.87;100424.63;4168847;28;20024;-64
2023/07/01 01:39:51;;;;;;;;;;;;;;;18.19;89.94;100421.03;4168657;28;20020;-64
2023/07/01 01:41:53;;;;;;;;;;;;;;;18.20;90.07;100421.91;4148824;28;19933;-62
2023/07/01 01:43:59;;;;;;;;;;;;;;;18.21;90.04;100414.53;4152199;28;20043;-63
2023/07/01 01:46:01;;;;;;;;;;;;;;;18.18;89.97;100413.94;4169278;28;20019;-64
2023/07/01 01:48:02;;;;;;;;;;;;;;;18.16;90.24;100410.59;4169570;28;20373;-63
2023/07/01 01:50:05;;;;;;;;;;;;;;;18.17;90.21;100405.97;4152492;28;20028;-64
2023/07/01 01:52:08;;;;;;;;;;;;;;;18.19;90.15;100407.38;4154599;28;20009;-63
2023/07/01 01:54:10;;;;;;;;;;;;;;;18.19;90.28;100399.19;4154474;28;20036;-63
2023/07/01 01:56:12;;;;;;;;;;;;;;;18.20;90.00;100402.78;4169244;28;20382;-62
2023/07/01 01:58:14;;;;;;;;;;;;;;;18.18;89.79;100400.28;4163890;28;20549;-62
2023/07/01 02:00:18;;;;;;;;;;;;;;;18.18;89.99;100397.53;4152699;28;20483;-63
2023/07/01 02:02:21;;;;;;;;;;;;;;;18.15;89.84;100400.75;4150588;28;20028;-62
2023/07/01 02:04:23;;;;;;;;;;;;;;;18.13;89.82;100404.75;4152178;28;20052;-63
2023/07/01 02:06:25;;;;;;;;;;;;;;;18.09;90.16;100400.84;4154042;28;20024;-62
2023/07/01 02:08:27;;;;;;;;;;;;;;;18.06;90.36;100401.31;4154134;28;20028;-63
2023/07/01 02:10:29;;;;;;;;;;;;;;;18.04;90.80;100403.44;4167728;28;20024;-62
2023/07/01 02:12:31;;;;;;;;;;;;;;;18.03;90.87;100404.53;4168558;28;20031;-63
2023/07/01 02:14:33;;;;;;;;;;;;;;;18.01;90.99;100397.38;4169407;28;20036;-64
2023/07/01 02:16:37;;;;;;;;;;;;;;;18.03;90.92;100393.59;4149591;28;20417;-63
2023/07/01 02:18:39;;;;;;;;;;;;;;;18.01;91.00;100389.19;4169212;28;20572;-62
2023/07/01 02:20:41;;;;;;;;;;;;;;;17.99;91.22;100387.75;4152947;28;20502;-63
2023/07/01 02:22:43;;;;;;;;;;;;;;;18.03;91.38;100390.88;4153490;28;19929;-63
2023/07/01 02:24:45;;;;;;;;;;;;;;;18.01;91.39;100382.91;4153261;28;20020;-62
2023/07/01 02:26:47;;;;;;;;;;;;;;;18.00;91.53;100379.31;4162472;28;20024;-63
2023/07/01 02:28:49;;;;;;;;;;;;;;;17.98;91.63;100386.94;4153587;28;20024;-62
2023/07/01 02:30:51;;;;;;;;;;;;;;;17.96;91.58;100378.13;4154897;28;21576;-63
2023/07/01 02:32:54;;;;;;;;;;;;;;;17.94;91.89;100374.78;4168308;28;20019;-61
2023/07/01 02:34:56;;;;;;;;;;;;;;;17.93;92.09;100373.16;4169055;28;20462;-63
2023/07/01 02:36:58;;;;;;;;;;;;;;;17.95;92.21;100375.66;4152906;28;20510;-64
2023/07/01 02:39:00;;;;;;;;;;;;;;;17.94;92.16;100380.25;4168003;28;20023;-64
2023/07/01 02:41:02;;;;;;;;;;;;;;;17.93;92.28;100378.59;4169184;28;20040;-64
2023/07/01 02:43:04;;;;;;;;;;;;;;;17.92;92.20;100376.94;4170836;28;19925;-63
2023/07/01 02:45:08;;;;;;;;;;;;;;;17.92;92.23;100376.94;4170025;28;20497;-62
2023/07/01 02:47:10;;;;;;;;;;;;;;;17.92;92.53;100368.75;4169601;28;20012;-63
2023/07/01 02:49:13;;;;;;;;;;;;;;;17.94;92.24;100371.25;4169126;28;20011;-64
2023/07/01 02:51:16;;;;;;;;;;;;;;;17.93;92.30;100375.03;4168819;28;20035;-62
2023/07/01 02:53:19;;;;;;;;;;;;;;;17.93;92.28;100364.94;4165723;28;20381;-62
2023/07/01 02:55:21;;;;;;;;;;;;;;;17.95;92.46;100367.44;4168113;28;20028;-62
2023/07/01 02:57:23;;;;;;;;;;;;;;;17.91;92.53;100358.88;4169637;28;20366;-63
2023/07/01 02:59:25;;;;;;;;;;;;;;;17.90;92.63;100357.22;4168150;28;20343;-61
2023/07/01 03:01:27;;;;;;;;;;;;;;;17.89;92.37;100358.28;4163237;28;20039;-61
2023/07/01 03:03:30;;;;;;;;;;;;;;;17.89;92.42;100355.56;4168052;28;20482;-61
2023/07/01 03:05:33;;;;;;;;;;;;;;;17.87;92.45;100357.66;4167622;28;20012;-63
2023/07/01 03:07:35;;;;;;;;;;;;;;;17.85;92.39;100365.25;4168446;28;20049;-62
2023/07/01 03:09:37;;;;;;;;;;;;;;;17.87;92.89;100362.28;4151441;28;20020;-62
2023/07/01 03:11:39;;;;;;;;;;;;;;;17.88;92.66;100362.06;4166377;28;20071;-62
2023/07/01 03:13:42;;;;;;;;;;;;;;;17.87;92.59;100354.94;4168820;28;20031;-63
2023/07/01 03:15:45;;;;;;;;;;;;;;;17.86;92.56;100352.44;4168240;28;20008;-63
2023/07/01 03:17:47;;;;;;;;;;;;;;;17.85;92.56;100346.13;4168622;28;20024;-62
2023/07/01 03:19:49;;;;;;;;;;;;;;;17.86;92.51;100345.06;4169373;28;20023;-63
2023/07/01 03:21:53;;;;;;;;;;;;;;;17.85;92.37;100340.66;4170557;28;20047;-59
2023/07/01 03:23:55;;;;;;;;;;;;;;;17.84;92.34;100336.28;4163552;28;19929;-62
2023/07/01 03:25:57;;;;;;;;;;;;;;;17.84;92.45;100339.00;4169513;28;20429;-62
2023/07/01 03:27:59;;;;;;;;;;;;;;;17.81;92.01;100329.38;4173085;28;20371;-61
2023/07/01 03:30:01;;;;;;;;;;;;;;;17.81;92.00;100331.28;4172229;28;20043;-62
2023/07/01 03:32:04;;;;;;;;;;;;;;;17.82;92.47;100328.31;4166746;28;20019;-63
2023/07/01 03:34:06;;;;;;;;;;;;;;;17.83;91.58;100329.13;4169345;28;20027;-62
2023/07/01 03:36:08;;;;;;;;;;;;;;;17.81;91.70;100337.56;4171598;28;20012;-60
2023/07/01 03:38:13;;;;;;;;;;;;;;;17.73;91.67;100329.72;4172030;28;20023;-62
2023/07/01 03:40:15;;;;;;;;;;;;;;;17.75;91.72;100332.22;4172191;28;20000;-62
2023/07/01 03:42:17;;;;;;;;;;;;;;;17.71;91.71;100328.28;4172999;28;20008;-62
2023/07/01 03:44:19;;;;;;;;;;;;;;;17.70;92.14;100327.47;4172427;28;19964;-61
2023/07/01 03:46:21;;;;;;;;;;;;;;;17.69;91.81;100330.41;4166306;28;20008;-63
2023/07/01 03:48:23;;;;;;;;;;;;;;;17.68;91.89;100332.34;4172472;28;20465;-63
2023/07/01 03:50:25;;;;;;;;;;;;;;;17.68;91.76;100339.66;4172197;28;20029;-62
2023/07/01 03:52:27;;;;;;;;;;;;;;;17.64;91.71;100331.94;4173062;28;20016;-62
2023/07/01 03:54:30;;;;;;;;;;;;;;;17.63;91.63;100337.63;4172953;28;20016;-62
2023/07/01 03:56:32;;;;;;;;;;;;;;;17.61;92.00;100332.41;4172163;28;20011;-63
2023/07/01 03:58:34;;;;;;;;;;;;;;;17.57;91.89;100333.97;4172159;28;20036;-62
2023/07/01 04:00:36;;;;;;;;;;;;;;;17.55;91.96;100338.81;4170418;28;20020;-63
2023/07/01 04:02:38;;;;;;;;;;;;;;;17.54;92.30;100339.03;4172310;28;20024;-63
2023/07/01 04:04:40;;;;;;;;;;;;;;;17.53;92.36;100335.47;4172266;28;19936;-63
2023/07/01 04:06:43;;;;;;;;;;;;;;;17.53;92.24;100338.22;4171828;28;20044;-63
2023/07/01 04:08:45;;;;;;;;;;;;;;;17.52;92.29;100331.06;4172303;28;20000;-62
2023/07/01 04:10:48;;;;;;;;;;;;;;;17.51;92.41;100337.63;4170345;28;20016;-62
2023/07/01 04:12:50;;;;;;;;;;;;;;;17.50;92.38;100330.50;4171900;28;20027;-63
2023/07/01 04:14:52;;;;;;;;;;;;;;;17.52;92.73;100330.25;4169684;28;20008;-62
2023/07/01 04:16:54;;;;;;;;;;;;;;;17.54;92.31;100333.56;4172797;28;20434;-63
2023/07/01 04:18:56;;;;;;;;;;;;;;;17.54;92.17;100337.16;4171417;28;20015;-62
2023/07/01 04:20:58;;;;;;;;;;;;;;;17.54;91.91;100337.16;4167536;28;20016;-62
2023/07/01 04:23:00;;;;;;;;;;;;;;;17.55;91.87;100337.97;4172014;28;20020;-63
2023/07/01 04:25:02;;;;;;;;;;;;;;;17.53;91.65;100340.13;4171950;28;20003;-60
2023/07/01 04:27:05;;;;;;;;;;;;;;;17.53;92.17;100346.41;4170557;28;20024;-63
2023/07/01 04:29:09;;;;;;;;;;;;;;;17.52;91.82;100336.53;4171497;28;20017;-62
2023/07/01 04:31:11;;;;;;;;;;;;;;;17.50;92.10;100338.69;4169634;28;20306;-62
2023/07/01 04:33:13;;;;;;;;;;;;;;;17.48;92.17;100336.19;4172178;28;20027;-62
2023/07/01 04:35:15;;;;;;;;;;;;;;;17.48;92.21;100333.44;4171169;28;20024;-64
2023/07/01 04:37:17;;;;;;;;;;;;;;;17.48;92.39;100325.25;4172032;28;20497;-62
2023/07/01 04:39:19;;;;;;;;;;;;;;;17.49;92.36;100326.09;4170967;28;20024;-63
2023/07/01 04:41:21;;;;;;;;;;;;;;;17.53;92.46;100329.19;4172056;28;20109;-62
2023/07/01 04:43:25;;;;;;;;;;;;;;;17.55;92.22;100322.41;4171466;28;20363;-62
2023/07/01 04:45:29;;;;;;;;;;;;;;;17.59;91.89;100322.81;4168079;28;20325;-62
2023/07/01 04:47:31;;;;;;;;;;;;;;;17.59;91.63;100323.63;4169832;28;20358;-60
2023/07/01 04:49:33;;;;;;;;;;;;;;;17.58;91.20;100323.88;4170914;28;20012;-62
2023/07/01 04:51:35;;;;;;;;;;;;;;;17.56;91.09;100318.63;4171829;28;20031;-59
2023/07/01 04:53:38;;;;;;;;;;;;;;;17.55;90.88;100324.31;4168563;28;20020;-62
2023/07/01 04:55:40;;;;;;;;;;;;;;;17.54;90.95;100326.25;4170540;28;20545;-62
2023/07/01 04:57:42;;;;;;;;;;;;;;;17.56;90.99;100315.91;4171583;28;20036;-61
2023/07/01 04:59:45;;;;;;;;;;;;;;;17.57;90.61;100322.19;4153997;28;20028;-61
2023/07/01 05:01:47;;;;;;;;;;;;;;;17.57;90.34;100311.25;4172114;28;20059;-61
2023/07/01 05:03:49;;;;;;;;;;;;;;;17.56;90.41;100323.28;4170160;28;20016;-61
2023/07/01 05:05:51;;;;;;;;;;;;;;;17.57;90.35;100319.47;4172127;28;20464;-62
2023/07/01 05:07:53;;;;;;;;;;;;;;;17.57;90.23;100311.25;4171518;28;20418;-61
2023/07/01 05:09:55;;;;;;;;;;;;;;;17.57;90.06;100308.53;4167988;28;20015;-60
2023/07/01 05:11:57;;;;;;;;;;;;;;;17.58;89.96;100316.50;4171670;28;20019;-61
2023/07/01 05:13:59;;;;;;;;;;;;;;;17.58;89.73;100316.50;4170613;28;20019;-60
2023/07/01 05:16:02;;;;;;;;;;;;;;;17.58;89.73;100316.50;4171596;28;20012;-61
2023/07/01 05:18:04;;;;;;;;;;;;;;;17.59;89.26;100314.63;4169034;28;20020;-63
2023/07/01 05:20:08;;;;;;;;;;;;;;;17.58;88.93;100308.31;4170784;28;20007;-63
2023/07/01 05:22:10;;;;;;;;;;;;;;;17.56;88.51;100315.91;4171305;28;20015;-63
2023/07/01 05:24:12;;;;;;;;;;;;;;;17.56;88.76;100307.72;4171486;28;20028;-63
2023/07/01 05:26:14;;;;;;;;;;;;;;;17.58;88.52;100305.56;4169250;28;19925;-62
2023/07/01 05:28:16;;;;;;;;;;;;;;;17.60;88.32;100313.53;4170897;28;20024;-63
2023/07/01 05:30:18;;;;;;;;;;;;;;;17.60;87.86;100311.66;4170662;28;20016;-63
2023/07/01 05:32:21;;;;;;;;;;;;;;;17.60;87.43;100313.53;4168235;28;20434;-63
2023/07/01 05:34:23;;;;;;;;;;;;;;;17.59;87.28;100312.72;4168662;28;20004;-63
2023/07/01 05:36:25;;;;;;;;;;;;;;;17.61;87.09;100310.56;4171646;28;20039;-63
2023/07/01 05:38:27;;;;;;;;;;;;;;;17.61;86.72;100312.47;4170302;28;20374;-63
2023/07/01 05:40:29;;;;;;;;;;;;;;;17.60;86.64;100306.19;4167502;28;20981;-62
2023/07/01 05:42:31;;;;;;;;;;;;;;;17.61;86.63;100310.56;4168586;28;20008;-62
2023/07/01 05:44:33;;;;;;;;;;;;;;;17.65;86.56;100308.22;4170780;28;20019;-62
2023/07/01 05:46:35;;;;;;;;;;;;;;;17.68;86.39;100312.38;4165412;28;19928;-62
2023/07/01 05:48:38;;;;;;;;;;;;;;;17.70;86.04;100307.53;4168176;28;20020;-63
2023/07/01 05:50:40;;;;;;;;;;;;;;;17.71;85.31;100311.88;4152308;28;20020;-63
2023/07/01 05:52:42;;;;;;;;;;;;;;;17.72;85.04;100305.38;4170675;28;20615;-63
2023/07/01 05:54:44;;;;;;;;;;;;;;;17.74;85.09;100304.09;4166795;28;20019;-63
2023/07/01 05:56:46;;;;;;;;;;;;;;;17.77;85.06;100305.50;4167254;28;20023;-63
2023/07/01 05:58:48;;;;;;;;;;;;;;;17.79;84.41;100304.19;4170789;28;20028;-63
2023/07/01 06:00:50;;;;;;;;;;;;;;;17.81;83.84;100301.22;4168745;28;20039;-63
2023/07/01 06:02:52;;;;;;;;;;;;;;;17.86;83.45;100303.25;4170753;28;20011;-65
2023/07/01 06:04:55;;;;;;;;;;;;;;;17.87;82.88;100302.16;4170836;28;20043;-63
2023/07/01 06:06:57;;;;;;;;;;;;;;;17.90;82.74;100299.00;4169448;28;20436;-62
2023/07/01 06:08:59;;;;;;;;;;;;;;;17.92;82.12;100303.16;4168667;28;20357;-62
2023/07/01 06:11:01;;;;;;;;;;;;;;;17.94;81.45;100298.28;4165941;28;20024;-62
2023/07/01 06:13:03;;;;;;;;;;;;;;;17.95;81.19;100305.44;4170445;28;20433;-63
2023/07/01 06:15:06;;;;;;;;;;;;;;;17.96;80.87;100304.38;4160268;28;20653;-63
2023/07/01 06:17:08;;;;;;;;;;;;;;;18.00;80.69;100296.53;4167762;28;20023;-63
2023/07/01 06:19:10;;;;;;;;;;;;;;;18.04;80.24;100302.34;4170116;28;20028;-63
2023/07/01 06:21:13;;;;;;;;;;;;;;;18.06;79.98;100297.50;4170564;28;20457;-63
2023/07/01 06:23:16;;;;;;;;;;;;;;;18.09;79.77;100291.56;4169832;28;20023;-63
2023/07/01 06:25:19;;;;;;;;;;;;;;;18.13;79.77;100301.75;4169154;28;20429;-63
2023/07/01 06:27:21;;;;;;;;;;;;;;;18.15;78.98;100294.16;4166915;28;20822;-63
2023/07/01 06:29:23;;;;;;;;;;;;;;;18.19;78.88;100292.59;4168090;28;20019;-64
2023/07/01 06:31:25;;;;;;;;;;;;;;;18.24;78.70;100289.13;4169743;28;20020;-63
2023/07/01 06:33:26;;;;;;;;;;;;;;;18.28;78.60;100282.13;4166394;28;20016;-64
2023/07/01 06:35:29;;;;;;;;;;;;;;;18.33;78.13;100295.91;4169967;28;20363;-63
2023/07/01 06:37:32;;;;;;;;;;;;;;;18.36;77.01;100292.69;4170506;28;20398;-64
2023/07/01 06:39:34;;;;;;;;;;;;;;;18.40;75.76;100284.88;4169840;28;20509;-63
2023/07/01 06:41:36;;;;;;;;;;;;;;;18.45;75.07;100292.31;4170616;28;20041;-63
2023/07/01 06:43:39;;;;;;;;;;;;;;;18.46;73.92;100289.34;4168938;28;20016;-64
2023/07/01 06:45:41;;;;;;;;;;;;;;;18.49;72.93;100277.94;4167776;28;20021;-64
2023/07/01 06:47:43;;;;;;;;;;;;;;;18.53;71.85;100283.78;4171241;28;20025;-64
2023/07/01 06:49:45;;;;;;;;;;;;;;;18.57;72.04;100286.84;4169809;28;20748;-64
2023/07/01 06:51:48;;;;;;;;;;;;;;;18.61;71.89;100282.56;4170126;28;20012;-63
2023/07/01 06:53:53;;;;;;;;;;;;;;;18.64;71.15;100288.38;4170199;28;20012;-64
2023/07/01 06:55:58;;;;;;;;;;;;;;;18.68;70.60;100284.09;4170832;28;20012;-63
2023/07/01 06:58:01;;;;;;;;;;;;;;;18.72;70.17;100284.44;4166920;28;20019;-64
2023/07/01 07:00:03;;;;;;;;;;;;;;;18.74;69.22;100274.06;4170123;28;20381;-63
2023/07/01 07:02:06;;;;;;;;;;;;;;;18.76;68.22;100279.31;4173167;28;20019;-64
2023/07/01 07:04:08;;;;;;;;;;;;;;;18.79;68.31;100273.34;4156176;28;20037;-64
2023/07/01 07:06:10;;;;;;;;;;;;;;;18.82;67.82;100275.59;4173310;28;20016;-64
2023/07/01 07:08:12;;;;;;;;;;;;;;;18.84;67.50;100273.44;4170159;28;19933;-64
2023/07/01 07:10:15;;;;;;;;;;;;;;;18.86;67.37;100268.59;4173471;28;20029;-64
2023/07/01 07:12:17;;;;;;;;;;;;;;;18.87;65.97;100262.88;4172681;28;20023;-64
2023/07/01 07:14:19;;;;;;;;;;;;;;;18.90;65.75;100258.81;4172542;28;20020;-64
2023/07/01 07:16:24;;;;;;;;;;;;;;;18.94;64.21;100257.25;4173300;28;20012;-63
2023/07/01 07:18:26;;;;;;;;;;;;;;;18.95;64.16;100261.66;4172976;28;20007;-64
2023/07/01 07:20:28;;;;;;;;;;;;;;;18.97;64.00;100262.25;4172862;28;20024;-64
2023/07/01 07:22:30;;;;;;;;;;;;;;;19.00;63.94;100259.03;4172622;28;20015;-64
2023/07/01 07:24:32;;;;;;;;;;;;;;;19.02;63.01;100264.25;4172776;28;20008;-63
2023/07/01 07:26:37;;;;;;;;;;;;;;;19.04;62.55;100253.88;4173246;28;20031;-63
2023/07/01 07:28:40;;;;;;;;;;;;;;;19.08;63.32;100246.84;4173505;28;20059;-63
2023/07/01 07:30:45;;;;;;;;;;;;;;;19.09;64.05;100246.59;4171687;28;20024;-63
2023/07/01 07:32:47;;;;;;;;;;;;;;;19.13;63.62;100244.19;4171751;28;20385;-64
2023/07/01 07:34:49;;;;;;;;;;;;;;;19.15;62.91;100252.16;4172403;28;20374;-63
2023/07/01 07:36:51;;;;;;;;;;;;;;;19.17;61.50;100261.81;4168224;28;20027;-64
2023/07/01 07:38:53;;;;;;;;;;;;;;;19.22;60.22;100248.19;4171297;28;20016;-64
2023/07/01 07:40:59;;;;;;;;;;;;;;;19.24;59.24;100239.75;4172919;28;20024;-64
2023/07/01 07:43:12;;;;;;;;;;;;;;;19.27;58.66;100233.78;4172862;28;20040;-64
2023/07/01 07:45:20;;;;;;;;;;;;;;;19.30;58.63;100243.41;4172159;28;20016;-63
2023/07/01 07:47:23;;;;;;;;;;;;;;;19.31;57.96;100239.56;4172589;28;20012;-63
2023/07/01 07:49:29;;;;;;;;;;;;;;;19.34;56.91;100225.38;4171974;28;20374;-63
2023/07/01 07:51:35;;;;;;;;;;;;;;;19.35;55.93;100235.28;4169903;28;20370;-64
2023/07/01 07:53:40;;;;;;;;;;;;;;;19.36;56.30;100226.81;4172189;28;20442;-64
2023/07/01 07:55:42;;;;;;;;;;;;;;;19.40;56.57;100230.72;4171983;28;20020;-63
2023/07/01 07:57:44;;;;;;;;;;;;;;;19.44;56.76;100233.78;4172089;28;20406;-63
2023/07/01 07:59:48;;;;;;;;;;;;;;;19.46;55.56;100237.09;4171605;28;20453;-63
2023/07/01 08:01:54;;;;;;;;;;;;;;;19.52;56.21;100238.84;4172299;28;20028;-63
2023/07/01 08:03:55;;;;;;;;;;;;;;;19.51;54.63;100225.41;4171937;28;20008;-64
2023/07/01 08:06:01;;;;;;;;;;;;;;;19.54;55.51;100235.88;4168523;28;20011;-63
2023/07/01 08:08:08;;;;;;;;;;;;;;;19.55;54.64;100221.91;4169289;28;20032;-63
2023/07/01 08:10:10;;;;;;;;;;;;;;;19.56;54.27;100220.84;4171334;28;19928;-63
2023/07/01 08:12:12;;;;;;;;;;;;;;;19.58;55.16;100224.16;4172358;28;20023;-64
2023/07/01 08:14:14;;;;;;;;;;;;;;;19.62;54.93;100221.75;4171281;28;20015;-63
2023/07/01 08:16:21;;;;;;;;;;;;;;;19.65;54.35;100221.25;4172059;28;20015;-64
2023/07/01 08:18:28;;;;;;;;;;;;;;;19.67;53.98;100210.88;4171161;28;20016;-64
2023/07/01 08:20:30;;;;;;;;;;;;;;;19.69;53.91;100213.38;4159821;28;20474;-64
2023/07/01 08:22:37;;;;;;;;;;;;;;;19.72;53.71;100219.19;4172162;28;20015;-64
2023/07/01 08:24:51;;;;;;;;;;;;;;;19.71;54.38;100206.53;4171593;28;20370;-64
2023/07/01 08:26:53;;;;;;;;;;;;;;;19.75;53.81;100213.19;4171126;28;20020;-63
2023/07/01 08:28:56;;;;;;;;;;;;;;;19.77;55.07;100212.97;4167057;28;20450;-63
2023/07/01 08:31:08;;;;;;;;;;;;;;;19.80;54.55;100223.44;4168713;28;20947;-64
2023/07/01 08:33:12;;;;;;;;;;;;;;;19.82;53.93;100209.50;4172175;28;20008;-64
2023/07/01 08:35:17;;;;;;;;;;;;;;;19.86;54.50;100214.22;4153723;28;20661;-65
2023/07/01 08:37:20;;;;;;;;;;;;;;;19.88;54.00;100206.56;4171830;28;20031;-65
2023/07/01 08:39:24;;;;;;;;;;;;;;;19.90;54.67;100206.31;4171170;28;20047;-65
2023/07/01 08:41:26;;;;;;;;;;;;;;;19.94;55.42;100202.00;4167715;28;20031;-65
2023/07/01 08:43:29;;;;;;;;;;;;;;;20.00;55.51;100198.25;4171726;28;20959;-65
2023/07/01 08:45:32;;;;;;;;;;;;;;;20.04;54.00;100193.91;4170798;28;20024;-65
2023/07/01 08:47:34;;;;;;;;;;;;;;;20.09;55.17;100213.16;4172599;28;20020;-66
2023/07/01 08:49:38;;;;;;;;;;;;;;;20.09;53.35;100204.09;4172010;28;20012;-65
2023/07/01 08:51:51;;;;;;;;;;;;;;;20.09;52.52;100198.63;4173250;28;20428;-64
2023/07/01 08:53:54;;;;;;;;;;;;;;;20.07;54.45;100190.66;4153416;28;20024;-67
2023/07/01 08:55:59;;;;;;;;;;;;;;;20.12;55.42;100187.16;4169973;28;20017;-65
2023/07/01 08:58:01;;;;;;;;;;;;;;;20.17;55.29;100200.91;4171518;28;20016;-66
2023/07/01 09:00:06;;;;;;;;;;;;;;;20.17;53.51;100179.84;4168968;28;20024;-65
2023/07/01 09:02:08;;;;;;;;;;;;;;;20.18;52.77;100172.44;4171209;28;20438;-64
2023/07/01 09:04:10;;;;;;;;;;;;;;;20.22;54.66;100173.59;4169256;28;20369;-65
2023/07/01 09:06:15;;;;;;;;;;;;;;;20.24;53.99;100192.53;4153641;28;20020;-64
2023/07/01 09:08:19;;;;;;;;;;;;;;;20.26;54.23;100187.59;4171120;28;20442;-65
2023/07/01 09:10:26;;;;;;;;;;;;;;;20.26;52.66;100162.94;4171033;28;20024;-68
2023/07/01 09:12:29;;;;;;;;;;;;;;;20.24;55.32;100170.59;4154120;28;19975;-66
2023/07/01 09:15:01;;;;;;;;;;;;;;;20.25;54.13;100170.34;4170780;28;20011;-67
2023/07/01 09:17:05;;;;;;;;;;;;;;;20.25;54.96;100162.09;4152114;28;20012;-63
2023/07/01 09:19:12;;;;;;;;;;;;;;;20.35;55.21;100189.63;4170630;28;20007;-64
2023/07/01 09:21:21;;;;;;;;;;;;;;;20.40;54.05;100172.41;4169544;28;20032;-64
2023/07/01 09:23:30;;;;;;;;;;;;;;;20.41;53.23;100168.59;4170378;28;20024;-64
2023/07/01 09:25:33;;;;;;;;;;;;;;;20.42;53.45;100159.25;4169996;28;20443;-64
2023/07/01 09:27:41;;;;;;;;;;;;;;;20.47;54.11;100159.34;4170994;28;20502;-63
2023/07/01 09:29:46;;;;;;;;;;;;;;;20.51;53.77;100167.88;4169368;28;20730;-63
2023/07/01 09:31:52;;;;;;;;;;;;;;;20.55;53.95;100165.44;4170718;28;20218;-63
2023/07/01 09:33:58;;;;;;;;;;;;;;;20.61;54.25;100164.41;4170422;28;20012;-64
2023/07/01 09:36:01;;;;;;;;;;;;;;;20.66;53.81;100167.25;4167942;28;20672;-64
2023/07/01 09:38:06;;;;;;;;;;;;;;;20.65;52.23;100160.94;4169509;28;20029;-63
2023/07/01 09:40:19;;;;;;;;;;;;;;;20.60;52.36;100155.38;4170234;28;20012;-65
2023/07/01 09:42:35;;;;;;;;;;;;;;;20.61;52.71;100142.47;4233254;27;20616;-65
2023/07/01 09:44:38;;;;;;;;;;;;;;;20.63;51.97;100135.66;4203331;27;20009;-64
2023/07/01 09:46:43;;;;;;;;;;;;;;;20.67;53.15;100150.53;4183422;28;20023;-65
2023/07/01 09:49:01;;;;;;;;;;;;;;;20.72;52.47;100133.31;4182589;28;20343;-66
2023/07/01 09:51:08;;;;;;;;;;;;;;;20.74;52.60;100141.28;4182877;28;20359;-65
2023/07/01 09:53:20;;;;;;;;;;;;;;;20.77;52.47;100127.84;4182710;28;20019;-65
2023/07/01 09:55:26;;;;;;;;;;;;;;;20.79;52.43;100131.16;4183111;28;20032;-66
2023/07/01 09:57:28;;;;;;;;;;;;;;;20.82;52.27;100107.88;4182001;28;20032;-66
2023/07/01 09:59:34;;;;;;;;;;;;;;;20.85;52.72;100116.41;4189103;28;20024;-66
2023/07/01 10:01:41;;;;;;;;;;;;;;;20.86;52.58;100112.56;4200495;28;20025;-65
2023/07/01 10:03:43;;;;;;;;;;;;;;;20.88;52.50;100121.38;4200302;28;20357;-64
2023/07/01 10:05:47;;;;;;;;;;;;;;;20.91;51.87;100124.66;4199326;28;20056;-66
2023/07/01 10:07:49;;;;;;;;;;;;;;;20.91;52.09;100113.69;4200013;28;20019;-66
2023/07/01 10:09:52;;;;;;;;;;;;;;;20.91;51.94;100108.19;4199224;28;20024;-64
2023/07/01 10:11:54;;;;;;;;;;;;;;;20.96;52.12;100103.59;4199947;28;20050;-66
2023/07/01 10:13:56;;;;;;;;;;;;;;;21.00;52.19;100107.47;4199728;28;20035;-66
2023/07/01 10:16:01;;;;;;;;;;;;;;;21.04;51.84;100096.81;4198864;28;20019;-66
2023/07/01 10:18:03;;;;;;;;;;;;;;;21.04;51.89;100089.38;4200203;28;20420;-66
2023/07/01 10:20:23;;;;;;;;;;;;;;;21.08;52.16;100092.41;4198440;28;20007;-64
2023/07/01 10:22:34;;;;;;;;;;;;;;;21.11;52.25;100083.66;4199338;28;20023;-66
2023/07/01 10:25:08;;;;;;;;;;;;;;;21.13;51.99;100094.38;4198976;28;20020;-65
2023/07/01 10:27:10;;;;;;;;;;;;;;;21.19;51.72;100085.09;4199475;28;20019;-65
2023/07/01 10:29:31;;;;;;;;;;;;;;;21.23;48.01;100089.78;4198918;28;20317;-72
2023/07/01 10:31:38;;;;;;;;;;;;;;;21.27;50.37;100067.28;4187577;28;20021;-68
2023/07/01 10:33:59;;;;;;;;;;;;;;;21.26;50.66;100062.91;4199874;28;20517;-68